Terminal Aerodrome Forecast
Issued by NWS Upton, NY

Home | Current Version | Previous Version | Text Only | Print | Product List | Glossary On
Versions: 1 2 3 4 5 6 7 8 9 10 11 12 13 14 15 16 17 18 19 20 21 22 23 24 25 26 27 28 29 30 31 32 33 34 35 36 37 38 39 40
829
FTUS41 KOKX 201130
TAFISP
TAF
KISP 201130Z 2012/2112 31004KT P6SM SKC
     FM201500 26006KT P6SM SCT050 SCT250
     FM201700 22009KT P6SM SCT050 SCT250
      TEMPO 2019/2021 22011G18KT
     FM210300 26007KT P6SM SCT050 SCT170 PROB30 2103/2106 3SM TSRA
      BKN040CB
     FM210700 25004KT P6SM FEW060=

USA.gov is the U.S. government's official web portal to all federal, state and local government web resources and services.